createdAt,value
2022-08-31T00:00:46.800Z,68.52
2022-08-31T00:01:46.827Z,69.22
2022-08-31T00:02:46.798Z,69.62
2022-08-31T00:03:46.796Z,68.32
2022-08-31T00:04:46.866Z,68.45
2022-08-31T00:05:46.798Z,67.55
2022-08-31T00:06:46.803Z,68.35
2022-08-31T00:07:46.797Z,67.35
2022-08-31T00:08:46.795Z,68.05
2022-08-31T00:09:46.798Z,68.45
2022-08-31T00:10:47.313Z,69.15
2022-08-31T00:11:46.797Z,69.66
2022-08-31T00:12:46.799Z,70.16
2022-08-31T00:13:46.795Z,70.46
2022-08-31T00:14:46.799Z,72.33
2022-08-31T00:15:46.799Z,72.53
2022-08-31T00:16:46.887Z,73.33
2022-08-31T00:17:46.796Z,72.24
2022-08-31T00:18:46.800Z,73.44
2022-08-31T00:19:46.799Z,72.94
2022-08-31T00:20:46.803Z,73.54
2022-08-31T00:21:46.796Z,74.44
2022-08-31T00:22:46.801Z,71.03
2022-08-31T00:23:46.795Z,74.74
2022-08-31T00:24:46.800Z,77.35
2022-08-31T00:25:46.799Z,78.09
2022-08-31T00:26:46.798Z,78.79
2022-08-31T00:27:46.797Z,79.63
2022-08-31T00:28:46.797Z,81.88
2022-08-31T00:29:46.796Z,81.01
2022-08-31T00:30:46.804Z,81.52
2022-08-31T00:31:46.852Z,82.72
2022-08-31T00:32:46.798Z,83.43
2022-08-31T00:33:46.798Z,82.82
2022-08-31T00:34:46.796Z,83.12
2022-08-31T00:35:46.795Z,83.03
2022-08-31T00:36:46.796Z,82.82
2022-08-31T00:37:46.795Z,83.93
2022-08-31T00:38:46.802Z,84.03
2022-08-31T00:39:46.795Z,83.93
2022-08-31T00:40:46.908Z,83.93
2022-08-31T00:41:46.798Z,83.83
2022-08-31T00:42:46.800Z,83.93
2022-08-31T00:43:46.800Z,84.23
2022-08-31T00:44:46.797Z,83.33
2022-08-31T00:45:46.873Z,83.33
2022-08-31T00:46:46.795Z,83.93
2022-08-31T00:47:46.793Z,83.23
2022-08-31T00:48:46.797Z,83.03
2022-08-31T00:49:46.793Z,83.12
2022-08-31T00:50:46.799Z,83.06
2022-08-31T00:51:46.794Z,84.07
2022-08-31T00:52:46.800Z,83.76
2022-08-31T00:53:46.794Z,83.06
2022-08-31T00:54:46.797Z,83.31
2022-08-31T00:55:46.798Z,84.01
2022-08-31T00:56:46.795Z,84.35
2022-08-31T00:57:46.793Z,84.65
2022-08-31T00:58:54.571Z,83.25
2022-08-31T00:59:46.793Z,84.25
2022-08-31T01:00:46.876Z,84.69
2022-08-31T01:01:46.849Z,85.40
2022-08-31T01:02:46.797Z,85.40
2022-08-31T01:03:46.790Z,86.10
2022-08-31T01:04:46.793Z,85.90
2022-08-31T01:05:46.793Z,86.30
2022-08-31T01:06:46.788Z,85.80
2022-08-31T01:07:46.789Z,85.80
2022-08-31T01:08:46.790Z,85.50
2022-08-31T01:09:55.766Z,84.89
2022-08-31T01:10:46.791Z,84.83
2022-08-31T01:11:46.789Z,85.14
2022-08-31T01:12:46.791Z,85.80
2022-08-31T01:13:46.788Z,86.10
2022-08-31T01:14:46.789Z,86.51
2022-08-31T01:15:46.785Z,86.41
2022-08-31T01:16:46.866Z,86.61
2022-08-31T01:17:46.788Z,86.51
2022-08-31T01:18:46.792Z,86.61
2022-08-31T01:19:46.784Z,86.71
2022-08-31T01:20:49.122Z,86.41
2022-08-31T01:21:46.785Z,85.30
2022-08-31T01:22:46.786Z,85.60
2022-08-31T01:23:46.784Z,85.90
2022-08-31T01:24:46.785Z,85.30
2022-08-31T01:25:46.785Z,85.56
2022-08-31T01:26:55.388Z,85.46
2022-08-31T01:27:46.781Z,85.66
2022-08-31T01:28:46.793Z,85.36
2022-08-31T01:29:46.780Z,85.76
2022-08-31T01:30:46.780Z,84.39
2022-08-31T01:31:46.854Z,84.59
2022-08-31T01:32:46.780Z,84.80
2022-08-31T01:33:46.783Z,84.19
2022-08-31T01:34:46.778Z,84.29
2022-08-31T01:35:46.780Z,81.10
2022-08-31T01:36:46.779Z,81.81
2022-08-31T01:37:46.778Z,83.32
2022-08-31T01:38:46.777Z,83.42
2022-08-31T01:39:46.778Z,84.63
2022-08-31T01:40:46.852Z,85.24
2022-08-31T01:41:46.774Z,84.94
2022-08-31T01:42:46.775Z,84.83
2022-08-31T01:43:46.772Z,85.03
2022-08-31T01:44:46.773Z,84.43
2022-08-31T01:45:46.774Z,84.43
2022-08-31T01:46:46.825Z,84.83
2022-08-31T01:47:46.772Z,85.54
2022-08-31T01:48:46.781Z,86.08
2022-08-31T01:49:46.770Z,85.08
2022-08-31T01:50:46.769Z,84.77
2022-08-31T01:51:46.767Z,85.28
2022-08-31T01:52:46.767Z,84.27
2022-08-31T01:53:48.484Z,84.17
2022-08-31T01:54:46.788Z,81.28
2022-08-31T01:55:46.766Z,80.51
2022-08-31T01:56:46.766Z,84.21
2022-08-31T01:57:46.764Z,83.34
2022-08-31T01:58:46.766Z,83.64
2022-08-31T01:59:46.766Z,84.25
2022-08-31T02:00:46.834Z,83.44
2022-08-31T02:01:46.866Z,84.15
2022-08-31T02:02:46.827Z,85.11
2022-08-31T02:03:46.760Z,85.46
2022-08-31T02:04:46.759Z,85.31
2022-08-31T02:05:46.764Z,85.31
2022-08-31T02:06:46.764Z,85.52
2022-08-31T02:07:46.760Z,85.42
2022-08-31T02:08:46.756Z,85.98
2022-08-31T02:09:46.761Z,86.63
2022-08-31T02:10:46.756Z,84.88
2022-08-31T02:11:46.756Z,84.71
2022-08-31T02:12:46.755Z,85.72
2022-08-31T02:13:46.752Z,85.11
2022-08-31T02:14:46.750Z,84.91
2022-08-31T02:15:46.797Z,85.02
2022-08-31T02:16:46.752Z,83.30
2022-08-31T02:17:46.751Z,84.01
2022-08-31T02:18:46.758Z,83.04
2022-08-31T02:19:46.752Z,84.41
2022-08-31T02:20:46.746Z,82.59
2022-08-31T02:21:46.754Z,83.50
2022-08-31T02:22:46.746Z,84.91
2022-08-31T02:23:46.747Z,85.72
2022-08-31T02:24:46.743Z,85.42
2022-08-31T02:25:46.744Z,85.42
2022-08-31T02:26:49.461Z,85.31
2022-08-31T02:27:46.743Z,84.81
2022-08-31T02:28:46.739Z,85.02
2022-08-31T02:29:46.742Z,85.42
2022-08-31T02:30:46.738Z,85.98
2022-08-31T02:31:46.826Z,83.20
2022-08-31T02:32:46.739Z,84.01
2022-08-31T02:33:46.741Z,84.47
2022-08-31T02:34:46.745Z,85.48
2022-08-31T02:35:46.740Z,85.58
2022-08-31T02:36:46.733Z,85.68
2022-08-31T02:37:46.732Z,85.98
2022-08-31T02:38:46.738Z,85.68
2022-08-31T02:39:46.733Z,85.28
2022-08-31T02:40:46.765Z,86.08
2022-08-31T02:41:46.734Z,86.08
2022-08-31T02:42:53.802Z,85.28
2022-08-31T02:43:46.736Z,85.58
2022-08-31T02:44:46.726Z,85.68
2022-08-31T02:45:51.033Z,85.88
2022-08-31T02:46:46.770Z,85.84
2022-08-31T02:47:46.729Z,85.28
2022-08-31T02:48:46.723Z,85.03
2022-08-31T02:49:46.729Z,85.54
2022-08-31T02:50:46.723Z,85.44
2022-08-31T02:51:46.721Z,85.14
2022-08-31T02:52:46.735Z,84.37
2022-08-31T02:53:46.724Z,84.37
2022-08-31T02:54:46.719Z,85.03
2022-08-31T02:55:46.718Z,84.83
2022-08-31T02:56:46.720Z,84.74
2022-08-31T02:57:46.719Z,84.57
2022-08-31T02:58:46.718Z,84.13
2022-08-31T02:59:46.718Z,84.23
2022-08-31T03:00:46.714Z,84.94
2022-08-31T03:01:46.784Z,85.44
2022-08-31T03:02:46.759Z,85.74
2022-08-31T03:03:48.861Z,85.44
2022-08-31T03:04:46.709Z,85.78
2022-08-31T03:05:46.726Z,85.28
2022-08-31T03:06:46.709Z,84.74
2022-08-31T03:07:46.710Z,83.02
2022-08-31T03:08:46.708Z,83.12
2022-08-31T03:09:46.707Z,84.17
2022-08-31T03:10:46.706Z,83.36
2022-08-31T03:11:46.709Z,83.76
2022-08-31T03:12:46.705Z,84.17
2022-08-31T03:13:46.705Z,84.47
2022-08-31T03:14:46.701Z,84.97
2022-08-31T03:15:46.737Z,84.97
2022-08-31T03:16:46.703Z,84.94
2022-08-31T03:17:46.700Z,84.83
2022-08-31T03:18:46.698Z,84.97
2022-08-31T03:19:46.705Z,85.34
2022-08-31T03:20:46.696Z,84.83
2022-08-31T03:21:46.700Z,84.23
2022-08-31T03:22:46.694Z,84.13
2022-08-31T03:23:46.704Z,84.47
2022-08-31T03:24:46.694Z,85.03
2022-08-31T03:25:46.698Z,85.03
2022-08-31T03:26:46.695Z,85.03
2022-08-31T03:27:46.693Z,85.03
2022-08-31T03:28:46.690Z,84.83
2022-08-31T03:29:46.692Z,85.03
2022-08-31T03:30:46.758Z,85.03
2022-08-31T03:31:46.689Z,84.94
2022-08-31T03:32:46.688Z,84.63
2022-08-31T03:33:46.692Z,84.63
2022-08-31T03:34:46.692Z,84.63
2022-08-31T03:35:46.688Z,84.43
2022-08-31T03:36:46.684Z,84.33
2022-08-31T03:37:46.688Z,84.33
2022-08-31T03:38:46.685Z,84.53
2022-08-31T03:39:46.684Z,84.43
2022-08-31T03:40:46.716Z,84.23
2022-08-31T03:41:46.687Z,84.43
2022-08-31T03:42:46.690Z,84.03
2022-08-31T03:43:46.681Z,84.53
2022-08-31T03:44:46.678Z,84.43
2022-08-31T03:45:46.680Z,84.94
2022-08-31T03:46:46.768Z,84.94
2022-08-31T03:47:46.683Z,84.94
2022-08-31T03:48:46.674Z,84.74
2022-08-31T03:49:46.674Z,84.94
2022-08-31T03:50:46.671Z,84.83
2022-08-31T03:51:46.674Z,84.94
2022-08-31T03:52:46.669Z,85.03
2022-08-31T03:53:46.670Z,84.63
2022-08-31T03:54:46.670Z,84.77
2022-08-31T03:55:46.670Z,84.33
2022-08-31T03:56:46.667Z,84.53
2022-08-31T03:57:46.671Z,84.67
2022-08-31T03:58:46.667Z,85.03
2022-08-31T03:59:46.668Z,84.63
2022-08-31T04:00:46.667Z,85.14
2022-08-31T04:01:46.768Z,84.94
2022-08-31T04:02:46.729Z,84.43
2022-08-31T04:03:46.675Z,84.37
2022-08-31T04:04:46.662Z,84.23
2022-08-31T04:05:46.667Z,84.13
2022-08-31T04:06:46.660Z,84.43
2022-08-31T04:07:46.663Z,83.22
2022-08-31T04:08:46.660Z,82.62
2022-08-31T04:09:46.661Z,82.76
2022-08-31T04:10:46.656Z,83.16
2022-08-31T04:11:46.657Z,83.26
2022-08-31T04:12:46.655Z,84.37
2022-08-31T04:13:46.653Z,83.10
2022-08-31T04:14:46.653Z,84.31
2022-08-31T04:15:46.789Z,84.31
2022-08-31T04:16:46.651Z,84.31
2022-08-31T04:17:46.651Z,83.70
2022-08-31T04:18:46.648Z,84.21
2022-08-31T04:19:46.649Z,84.21
2022-08-31T04:20:46.648Z,83.76
2022-08-31T04:21:46.651Z,84.31
2022-08-31T04:22:46.646Z,84.61
2022-08-31T04:23:46.645Z,84.71
2022-08-31T04:24:46.644Z,84.57
2022-08-31T04:25:46.649Z,83.20
2022-08-31T04:26:46.644Z,83.26
2022-08-31T04:27:46.643Z,83.40
2022-08-31T04:28:46.641Z,83.30
2022-08-31T04:29:46.640Z,82.59
2022-08-31T04:30:46.719Z,84.31
2022-08-31T04:31:46.640Z,84.11
2022-08-31T04:32:46.637Z,83.70
2022-08-31T04:33:46.640Z,83.14
2022-08-31T04:34:46.636Z,84.25
2022-08-31T04:35:46.633Z,84.45
2022-08-31T04:36:46.635Z,84.35
2022-08-31T04:37:47.030Z,84.55
2022-08-31T04:38:46.630Z,84.19
2022-08-31T04:39:49.466Z,84.25
2022-08-31T04:40:46.733Z,84.25
2022-08-31T04:41:46.631Z,84.65
2022-08-31T04:42:46.627Z,84.35
2022-08-31T04:43:46.628Z,84.65
2022-08-31T04:44:46.628Z,84.15
2022-08-31T04:45:46.679Z,84.49
2022-08-31T04:46:46.625Z,84.75
2022-08-31T04:47:46.626Z,84.29
2022-08-31T04:48:46.623Z,84.19
2022-08-31T04:49:46.623Z,84.29
2022-08-31T04:50:46.633Z,84.59
2022-08-31T04:51:46.628Z,84.79
2022-08-31T04:52:57.299Z,85.10
2022-08-31T04:53:46.620Z,85.40
2022-08-31T04:54:46.625Z,84.59
2022-08-31T04:55:46.621Z,84.39
2022-08-31T04:56:46.613Z,84.49
2022-08-31T04:57:46.613Z,84.33
2022-08-31T04:58:46.611Z,84.63
2022-08-31T04:59:46.614Z,83.62
2022-08-31T05:00:46.609Z,84.63
2022-08-31T05:01:46.788Z,84.93
2022-08-31T05:02:51.313Z,85.64
2022-08-31T05:03:46.609Z,85.28
2022-08-31T05:04:46.610Z,85.74
2022-08-31T05:05:46.609Z,85.78
2022-08-31T05:06:46.604Z,86.25
2022-08-31T05:07:46.609Z,86.95
2022-08-31T05:08:46.600Z,85.84
2022-08-31T05:09:46.602Z,85.34
2022-08-31T05:10:46.599Z,84.73
2022-08-31T05:11:46.599Z,85.03
2022-08-31T05:12:46.598Z,85.64
2022-08-31T05:13:46.608Z,85.94
2022-08-31T05:14:46.598Z,85.54
2022-08-31T05:15:46.688Z,85.70
2022-08-31T05:16:46.592Z,86.21
2022-08-31T05:17:46.596Z,84.89
2022-08-31T05:18:46.591Z,84.99
2022-08-31T05:19:46.591Z,84.39
2022-08-31T05:20:46.586Z,84.39
2022-08-31T05:21:46.586Z,84.95
2022-08-31T05:22:46.590Z,83.28
2022-08-31T05:23:46.585Z,83.78
2022-08-31T05:24:46.583Z,84.19
2022-08-31T05:25:46.584Z,84.25
2022-08-31T05:26:46.580Z,84.55
2022-08-31T05:27:46.579Z,84.79
2022-08-31T05:28:46.583Z,84.25
2022-08-31T05:29:46.579Z,84.25
2022-08-31T05:30:46.628Z,83.14
2022-08-31T05:31:51.540Z,84.15
2022-08-31T05:32:46.573Z,84.35
2022-08-31T05:33:46.583Z,84.39
2022-08-31T05:34:46.603Z,84.35
2022-08-31T05:35:46.577Z,84.25
2022-08-31T05:36:46.567Z,84.15
2022-08-31T05:37:46.570Z,82.84
2022-08-31T05:38:46.579Z,82.64
2022-08-31T05:39:46.576Z,83.44
2022-08-31T05:40:46.645Z,82.73
2022-08-31T05:41:46.565Z,83.14
2022-08-31T05:42:46.564Z,83.64
2022-08-31T05:43:46.561Z,83.34
2022-08-31T05:44:46.558Z,83.74
2022-08-31T05:45:46.560Z,84.35
2022-08-31T05:46:57.233Z,84.15
2022-08-31T05:47:46.555Z,83.34
2022-08-31T05:48:49.289Z,83.74
2022-08-31T05:49:46.557Z,83.84
2022-08-31T05:50:46.555Z,84.15
2022-08-31T05:51:46.554Z,83.04
2022-08-31T05:52:46.580Z,84.19
2022-08-31T05:53:46.563Z,84.49
2022-08-31T05:54:46.553Z,84.45
2022-08-31T05:55:46.561Z,83.28
2022-08-31T05:56:46.555Z,83.28
2022-08-31T05:57:46.558Z,83.58
2022-08-31T05:58:46.547Z,83.44
2022-08-31T05:59:46.544Z,83.44
2022-08-31T06:00:46.543Z,84.35
2022-08-31T06:01:46.622Z,85.16
2022-08-31T06:02:46.719Z,84.55
2022-08-31T06:03:46.541Z,84.75
2022-08-31T06:04:46.600Z,84.55
2022-08-31T06:05:46.538Z,84.75
2022-08-31T06:06:46.535Z,84.85
2022-08-31T06:07:46.535Z,84.55
2022-08-31T06:08:46.535Z,83.64
2022-08-31T06:09:46.534Z,84.15
2022-08-31T06:10:46.529Z,83.48
2022-08-31T06:11:46.533Z,83.34
2022-08-31T06:12:46.527Z,85.16
2022-08-31T06:13:46.527Z,85.16
2022-08-31T06:14:49.988Z,83.84
2022-08-31T06:15:46.564Z,84.05
2022-08-31T06:16:46.523Z,85.05
2022-08-31T06:17:46.527Z,85.46
2022-08-31T06:18:46.522Z,84.75
2022-08-31T06:19:46.521Z,85.56
2022-08-31T06:20:46.518Z,85.52
2022-08-31T06:21:50.060Z,85.62
2022-08-31T06:22:46.518Z,85.11
2022-08-31T06:23:46.514Z,84.41
2022-08-31T06:24:46.514Z,84.81
2022-08-31T06:25:46.513Z,85.02
2022-08-31T06:26:46.514Z,85.52
2022-08-31T06:27:46.509Z,85.52
2022-08-31T06:28:46.511Z,85.82
2022-08-31T06:29:46.507Z,86.02
2022-08-31T06:30:55.357Z,85.52
2022-08-31T06:31:46.601Z,85.62
2022-08-31T06:32:46.507Z,85.08
2022-08-31T06:33:46.504Z,85.02
2022-08-31T06:34:46.510Z,83.26
2022-08-31T06:35:46.507Z,84.37
2022-08-31T06:36:46.505Z,84.67
2022-08-31T06:37:46.501Z,84.88
2022-08-31T06:38:46.507Z,84.41
2022-08-31T06:39:46.518Z,84.77
2022-08-31T06:40:46.564Z,84.21
2022-08-31T06:41:46.500Z,84.37
2022-08-31T06:42:46.496Z,84.17
2022-08-31T06:43:46.492Z,84.27
2022-08-31T06:44:46.491Z,85.08
2022-08-31T06:45:46.529Z,84.27
2022-08-31T06:46:47.401Z,84.88
2022-08-31T06:47:46.489Z,84.97
2022-08-31T06:48:46.489Z,85.48
2022-08-31T06:49:46.488Z,85.68
2022-08-31T06:50:46.490Z,86.04
2022-08-31T06:51:46.487Z,86.24
2022-08-31T06:52:46.692Z,84.13
2022-08-31T06:53:46.486Z,83.26
2022-08-31T06:54:46.482Z,84.13
2022-08-31T06:55:46.482Z,84.74
2022-08-31T06:56:46.480Z,83.32
2022-08-31T06:57:46.478Z,81.65
2022-08-31T06:58:46.482Z,82.76
2022-08-31T06:59:46.479Z,83.22
2022-08-31T07:00:46.479Z,83.42
2022-08-31T07:01:46.643Z,84.23
2022-08-31T07:02:46.551Z,84.13
2022-08-31T07:03:46.473Z,82.42
2022-08-31T07:04:46.471Z,82.01
2022-08-31T07:05:46.471Z,82.42
2022-08-31T07:06:46.471Z,82.71
2022-08-31T07:07:46.500Z,82.31
2022-08-31T07:08:46.472Z,83.22
2022-08-31T07:09:46.476Z,84.19
2022-08-31T07:10:46.469Z,84.39
2022-08-31T07:11:46.465Z,84.69
2022-08-31T07:12:46.465Z,84.39
2022-08-31T07:13:46.464Z,84.09
2022-08-31T07:14:54.689Z,83.25
2022-08-31T07:15:46.466Z,82.94
2022-08-31T07:16:46.617Z,84.15
2022-08-31T07:17:46.464Z,84.15
2022-08-31T07:18:46.457Z,83.95
2022-08-31T07:19:46.457Z,83.84
2022-08-31T07:20:46.458Z,83.34
2022-08-31T07:21:46.457Z,80.58
2022-08-31T07:22:46.460Z,80.29
2022-08-31T07:23:46.455Z,80.63
2022-08-31T07:24:46.468Z,80.12
2022-08-31T07:25:46.454Z,82.30
2022-08-31T07:26:46.450Z,82.70
2022-08-31T07:27:46.450Z,82.30
2022-08-31T07:28:46.451Z,81.29
2022-08-31T07:29:46.454Z,81.05
2022-08-31T07:30:46.506Z,81.05
2022-08-31T07:31:46.652Z,80.35
2022-08-31T07:32:46.450Z,81.05
2022-08-31T07:33:46.446Z,81.26
2022-08-31T07:34:46.447Z,79.04
2022-08-31T07:35:46.445Z,77.90
2022-08-31T07:36:46.446Z,79.61
2022-08-31T07:37:46.445Z,79.91
2022-08-31T07:38:46.445Z,81.32
2022-08-31T07:39:46.443Z,81.52
2022-08-31T07:40:46.547Z,80.81
2022-08-31T07:41:46.446Z,79.10
2022-08-31T07:42:46.439Z,78.27
2022-08-31T07:43:46.438Z,78.40
2022-08-31T07:44:53.050Z,78.46
2022-08-31T07:45:46.503Z,80.01
2022-08-31T07:46:46.440Z,78.27
2022-08-31T07:47:46.440Z,79.06
2022-08-31T07:48:46.448Z,79.97
2022-08-31T07:49:46.455Z,80.57
2022-08-31T07:50:46.441Z,81.18
2022-08-31T07:51:46.442Z,79.91
2022-08-31T07:52:46.438Z,78.27
2022-08-31T07:53:46.444Z,77.36
2022-08-31T07:54:46.435Z,77.16
2022-08-31T07:55:46.432Z,77.59
2022-08-31T07:56:46.437Z,77.46
2022-08-31T07:57:46.434Z,75.65
2022-08-31T07:58:46.431Z,77.36
2022-08-31T07:59:46.431Z,78.77
2022-08-31T08:00:46.497Z,78.86
2022-08-31T08:01:46.484Z,78.16
2022-08-31T08:02:50.873Z,78.86
2022-08-31T08:03:46.427Z,79.57
2022-08-31T08:04:46.432Z,76.89
2022-08-31T08:05:46.426Z,77.90
2022-08-31T08:06:46.426Z,78.56
2022-08-31T08:07:46.426Z,79.37
2022-08-31T08:08:57.045Z,78.20
2022-08-31T08:09:46.424Z,77.36
2022-08-31T08:10:46.746Z,76.69
2022-08-31T08:11:46.427Z,77.66
2022-08-31T08:12:46.425Z,77.16
2022-08-31T08:13:46.425Z,77.00
2022-08-31T08:14:46.421Z,76.79
2022-08-31T08:15:46.737Z,77.20
2022-08-31T08:16:46.428Z,77.00
2022-08-31T08:17:46.422Z,77.29
2022-08-31T08:18:46.422Z,77.46
2022-08-31T08:19:46.420Z,77.50
2022-08-31T08:20:46.419Z,77.46
2022-08-31T08:21:46.419Z,76.69
2022-08-31T08:22:55.129Z,77.00
2022-08-31T08:23:46.418Z,76.79
2022-08-31T08:24:46.416Z,77.56
2022-08-31T08:25:46.456Z,76.79
2022-08-31T08:26:48.174Z,76.65
2022-08-31T08:27:46.417Z,77.36
2022-08-31T08:28:46.420Z,78.16
2022-08-31T08:29:46.416Z,78.16
2022-08-31T08:30:46.579Z,77.36
2022-08-31T08:31:46.479Z,78.46
2022-08-31T08:32:46.416Z,78.66
2022-08-31T08:33:46.411Z,77.76
2022-08-31T08:34:46.419Z,76.86
2022-08-31T08:35:46.413Z,77.46
2022-08-31T08:36:46.413Z,77.06
2022-08-31T08:38:02.287Z,76.76
2022-08-31T08:38:46.411Z,76.05
2022-08-31T08:39:46.408Z,75.95
2022-08-31T08:40:46.525Z,76.92
2022-08-31T08:41:46.411Z,76.92
2022-08-31T08:42:46.409Z,76.02
2022-08-31T08:43:47.971Z,75.92
2022-08-31T08:44:46.414Z,76.42
2022-08-31T08:45:46.478Z,76.21
2022-08-31T08:46:46.511Z,75.92
2022-08-31T08:47:46.470Z,76.32
2022-08-31T08:48:46.403Z,76.52
2022-08-31T08:49:49.687Z,75.82
2022-08-31T08:50:46.418Z,76.92
2022-08-31T08:51:46.403Z,75.82
2022-08-31T08:52:46.406Z,76.78
2022-08-31T08:53:46.405Z,75.88
2022-08-31T08:54:46.402Z,76.38
2022-08-31T08:55:46.399Z,75.88
2022-08-31T08:56:46.400Z,75.74
2022-08-31T08:57:46.401Z,75.18
2022-08-31T08:58:46.403Z,76.04
2022-08-31T08:59:46.396Z,77.25
2022-08-31T09:00:46.411Z,77.95
2022-08-31T09:01:46.442Z,77.95
2022-08-31T09:02:46.431Z,76.95
2022-08-31T09:03:46.400Z,76.85
2022-08-31T09:04:46.397Z,76.21
2022-08-31T09:05:46.396Z,78.22
2022-08-31T09:06:49.114Z,76.51
2022-08-31T09:07:46.394Z,75.41
2022-08-31T09:08:46.395Z,74.20
2022-08-31T09:09:46.395Z,74.14
2022-08-31T09:10:46.396Z,74.01
2022-08-31T09:11:46.397Z,73.90
2022-08-31T09:12:46.393Z,74.60
2022-08-31T09:13:46.392Z,74.01
2022-08-31T09:14:46.391Z,74.10
2022-08-31T09:15:46.622Z,75.10
2022-08-31T09:16:46.389Z,75.51
2022-08-31T09:17:46.386Z,75.71
2022-08-31T09:18:46.388Z,75.60
2022-08-31T09:19:46.387Z,74.20
2022-08-31T09:20:46.390Z,73.60
2022-08-31T09:21:46.384Z,73.30
2022-08-31T09:22:46.396Z,73.30
2022-08-31T09:23:46.385Z,73.67
2022-08-31T09:24:49.505Z,73.86
2022-08-31T09:25:46.387Z,73.97
2022-08-31T09:26:46.384Z,73.57
2022-08-31T09:27:47.019Z,73.57
2022-08-31T09:28:46.385Z,73.77
2022-08-31T09:29:46.382Z,73.67
2022-08-31T09:30:46.529Z,72.97
2022-08-31T09:31:46.540Z,74.47
2022-08-31T09:32:46.381Z,73.47
2022-08-31T09:33:46.380Z,72.73
2022-08-31T09:34:46.387Z,73.93
2022-08-31T09:35:46.378Z,74.63
2022-08-31T09:36:46.382Z,73.63
2022-08-31T09:37:46.602Z,73.33
2022-08-31T09:38:46.381Z,72.23
2022-08-31T09:39:46.375Z,72.23
2022-08-31T09:40:46.487Z,74.43
2022-08-31T09:41:46.492Z,73.23
2022-08-31T09:42:46.376Z,72.23
2022-08-31T09:43:46.375Z,71.33
2022-08-31T09:44:46.376Z,72.43
2022-08-31T09:45:46.421Z,71.69
2022-08-31T09:46:46.374Z,72.69
2022-08-31T09:47:46.371Z,75.00
2022-08-31T09:48:46.384Z,76.00
2022-08-31T09:49:46.371Z,78.00
2022-08-31T09:50:46.373Z,76.80
2022-08-31T09:51:46.371Z,74.30
2022-08-31T09:52:46.373Z,71.19
2022-08-31T09:53:46.369Z,71.19
2022-08-31T09:54:47.396Z,71.59
2022-08-31T09:55:46.367Z,69.79
2022-08-31T09:56:46.368Z,69.99
2022-08-31T09:57:46.368Z,70.69
2022-08-31T09:58:46.367Z,72.19
2022-08-31T09:59:46.368Z,71.50
2022-08-31T10:00:46.369Z,72.50
2022-08-31T10:01:46.453Z,70.56
2022-08-31T10:02:46.384Z,69.56
2022-08-31T10:03:46.475Z,69.69
2022-08-31T10:04:46.437Z,72.36
2022-08-31T10:05:46.368Z,70.76
2022-08-31T10:06:46.605Z,72.09
2022-08-31T10:07:46.365Z,71.06
2022-08-31T10:08:46.367Z,71.39
2022-08-31T10:09:46.362Z,70.86
2022-08-31T10:10:46.363Z,69.96
2022-08-31T10:11:46.366Z,70.66
2022-08-31T10:12:46.363Z,71.26
2022-08-31T10:13:46.364Z,71.36
2022-08-31T10:14:46.371Z,71.76
2022-08-31T10:15:46.627Z,72.16
2022-08-31T10:16:46.367Z,72.46
2022-08-31T10:17:46.366Z,72.16
2022-08-31T10:18:46.369Z,71.76
2022-08-31T10:19:46.360Z,69.96
2022-08-31T10:20:46.366Z,70.96
2022-08-31T10:21:46.362Z,70.46
2022-08-31T10:22:46.374Z,69.56
2022-08-31T10:23:46.364Z,69.12
2022-08-31T10:24:46.372Z,69.26
2022-08-31T10:25:46.365Z,70.62
2022-08-31T10:26:46.366Z,69.02
2022-08-31T10:27:46.362Z,67.82
2022-08-31T10:29:46.364Z,69.53
2022-08-31T10:30:46.377Z,68.62
2022-08-31T10:31:48.651Z,68.19
2022-08-31T10:32:46.366Z,68.19
2022-08-31T10:33:46.363Z,67.89
2022-08-31T10:34:46.369Z,65.89
2022-08-31T10:35:46.362Z,67.99
2022-08-31T10:36:46.362Z,69.49
2022-08-31T10:37:46.369Z,66.89
2022-08-31T10:38:46.371Z,67.40
2022-08-31T10:39:46.368Z,67.19
2022-08-31T10:40:46.398Z,65.89
2022-08-31T10:41:46.363Z,66.99
2022-08-31T10:42:46.361Z,66.19
2022-08-31T10:43:46.366Z,68.59
2022-08-31T10:44:49.996Z,67.49
2022-08-31T10:45:46.442Z,66.66
2022-08-31T10:46:46.372Z,68.36
2022-08-31T10:47:46.365Z,68.46
2022-08-31T10:48:47.241Z,68.16
2022-08-31T10:49:46.365Z,68.26
2022-08-31T10:50:46.367Z,67.26
2022-08-31T10:51:46.362Z,67.06
2022-08-31T10:52:46.361Z,65.76
2022-08-31T10:53:46.372Z,66.06
2022-08-31T10:54:46.363Z,66.66
2022-08-31T10:55:46.365Z,65.36
2022-08-31T10:56:46.363Z,66.06
2022-08-31T10:57:46.366Z,66.26
2022-08-31T10:58:46.364Z,66.96
2022-08-31T10:59:46.413Z,67.56
2022-08-31T11:00:46.365Z,66.56
2022-08-31T11:01:46.400Z,67.46
2022-08-31T11:02:46.373Z,67.46
2022-08-31T11:03:46.366Z,68.36
2022-08-31T11:04:46.461Z,68.96
2022-08-31T11:05:50.429Z,67.26
2022-08-31T11:06:46.368Z,68.46
2022-08-31T11:07:46.367Z,68.86
2022-08-31T11:08:46.364Z,69.79
2022-08-31T11:09:46.367Z,70.29
2022-08-31T11:10:46.365Z,70.49
2022-08-31T11:11:46.367Z,71.29
2022-08-31T11:12:46.370Z,70.69
2022-08-31T11:13:49.324Z,70.99
2022-08-31T11:14:46.367Z,70.89
2022-08-31T11:15:46.860Z,70.49
2022-08-31T11:16:46.364Z,70.83
2022-08-31T11:17:46.369Z,70.59
2022-08-31T11:18:46.369Z,70.12
2022-08-31T11:19:46.370Z,69.69
2022-08-31T11:20:46.367Z,71.59
2022-08-31T11:21:46.371Z,72.29
2022-08-31T11:22:46.367Z,71.39
2022-08-31T11:23:46.377Z,71.49
2022-08-31T11:24:46.367Z,70.69
2022-08-31T11:25:46.369Z,71.29
2022-08-31T11:26:46.369Z,70.29
2022-08-31T11:27:46.370Z,68.69
2022-08-31T11:28:46.368Z,68.19
2022-08-31T11:29:46.382Z,68.16
2022-08-31T11:30:50.954Z,67.26
2022-08-31T11:31:46.427Z,66.66
2022-08-31T11:32:46.369Z,68.26
2022-08-31T11:34:06.093Z,67.96
2022-08-31T11:34:46.370Z,67.96
2022-08-31T11:35:46.371Z,68.82
2022-08-31T11:36:46.382Z,70.06
2022-08-31T11:37:46.380Z,69.26
2022-08-31T11:38:46.431Z,67.76
2022-08-31T11:39:46.381Z,68.86
2022-08-31T11:40:46.422Z,68.86
2022-08-31T11:41:46.377Z,68.06
2022-08-31T11:42:46.375Z,67.93
2022-08-31T11:43:46.373Z,67.23
2022-08-31T11:44:46.373Z,68.86
2022-08-31T11:45:46.478Z,69.53
2022-08-31T11:46:46.387Z,69.62
2022-08-31T11:47:46.378Z,70.76
2022-08-31T11:48:46.378Z,70.96
2022-08-31T11:49:46.375Z,70.86
2022-08-31T11:50:46.381Z,71.66
2022-08-31T11:51:46.383Z,71.76
2022-08-31T11:52:46.376Z,70.26
2022-08-31T11:53:46.424Z,70.56
2022-08-31T11:54:46.379Z,70.46
2022-08-31T11:55:46.377Z,70.96
2022-08-31T11:56:46.377Z,71.76
2022-08-31T11:57:46.381Z,71.16
2022-08-31T11:58:46.379Z,71.16
2022-08-31T11:59:46.409Z,70.96
2022-08-31T12:00:52.310Z,70.76
2022-08-31T12:01:46.382Z,72.49
2022-08-31T12:02:46.416Z,72.19
2022-08-31T12:03:46.383Z,71.49
2022-08-31T12:04:46.397Z,70.39
2022-08-31T12:05:46.439Z,70.49
2022-08-31T12:06:46.382Z,68.79
2022-08-31T12:07:46.385Z,68.26
2022-08-31T12:08:46.382Z,68.26
2022-08-31T12:09:46.386Z,67.56
2022-08-31T12:10:46.382Z,69.46
2022-08-31T12:11:46.387Z,70.23
2022-08-31T12:12:46.388Z,70.56
2022-08-31T12:13:46.388Z,70.83
2022-08-31T12:14:46.385Z,70.06
2022-08-31T12:15:46.448Z,70.06
2022-08-31T12:16:46.385Z,70.56
2022-08-31T12:17:46.389Z,70.56
2022-08-31T12:18:46.385Z,70.76
2022-08-31T12:19:46.392Z,71.16
2022-08-31T12:20:46.388Z,70.86
2022-08-31T12:21:46.392Z,71.46
2022-08-31T12:22:46.389Z,71.29
2022-08-31T12:23:46.391Z,70.79
2022-08-31T12:24:49.366Z,70.19
2022-08-31T12:25:46.394Z,69.89
2022-08-31T12:26:46.398Z,71.29
2022-08-31T12:27:46.394Z,68.19
2022-08-31T12:28:46.419Z,70.29
2022-08-31T12:29:46.399Z,68.59
2022-08-31T12:30:46.479Z,70.09
2022-08-31T12:31:46.393Z,67.19
2022-08-31T12:32:46.392Z,66.19
2022-08-31T12:33:46.395Z,67.19
2022-08-31T12:34:46.395Z,66.56
2022-08-31T12:35:46.513Z,68.86
2022-08-31T12:36:46.403Z,69.36
2022-08-31T12:37:46.400Z,69.46
2022-08-31T12:38:46.415Z,69.76
2022-08-31T12:39:46.399Z,70.39
2022-08-31T12:40:46.506Z,69.99
2022-08-31T12:41:46.398Z,70.59
2022-08-31T12:42:46.400Z,70.49
2022-08-31T12:43:46.409Z,70.99
2022-08-31T12:44:46.399Z,70.89
2022-08-31T12:45:46.403Z,70.99
2022-08-31T12:46:46.423Z,70.29
2022-08-31T12:47:46.405Z,69.99
2022-08-31T12:48:46.402Z,69.79
2022-08-31T12:49:46.403Z,70.09
2022-08-31T12:50:46.401Z,69.82
2022-08-31T12:51:46.404Z,70.62
2022-08-31T12:52:46.402Z,70.62
2022-08-31T12:53:46.405Z,70.29